weather.gov     
National Weather Service

Terminal Aerodrome Forecast
NWS Homepage
This page is being discontinued on March 12, 2014.
The same data is available at this site. Please update your bookmarks.
Thank you, and we apologize for the inconvenience.
Please send an email to SR-SRH.Webmaster@noaa.gov with any concerns.


Current Version
Previous Version:    01  02  03  04  05  06  07  08  09  10  11  12  13  14  15  16  17  18  19  20  21  22  23  24  25  26  27  28  29  30  
   31  32  
[Printable]
039
FTUS44 KSHV 210200 AAA
TAFLFK
TAF AMD
KLFK 210209Z 2102/2124 06004KT P6SM SCT023
      TEMPO 2103/2105 BKN009
     FM210500 VRB03KT P6SM OVC007
     FM210800 00000KT 4SM BR SCT002
      TEMPO 2109/2113 1SM BR BKN002
     FM211300 VRB03KT 1SM BR OVC002
     FM211600 14005KT 6SM BR SCT008 OVC012
     FM211800 15005KT P6SM BKN017=


U.S. Dept. of Commerce
NOAA National Weather Service
1325 East West Highway
Silver Spring, MD 20910
E-mail: w-nws.webmaster@noaa.gov
Page last modified: May 16, 2007
NATIONAL WEATHER SERVICE: for Safety, for Work, for Fun - FOR LIFE